createdAt,value
2023-03-31T00:00:17.595Z,6.20
2023-03-31T00:03:22.402Z,6.45
2023-03-31T00:06:19.636Z,6.48
2023-03-31T00:09:21.951Z,6.44
2023-03-31T00:12:18.791Z,6.44
2023-03-31T00:15:15.611Z,6.63
2023-03-31T00:18:12.544Z,6.56
2023-03-31T00:21:14.479Z,6.67
2023-03-31T00:24:13.516Z,6.76
2023-03-31T00:27:11.553Z,6.94
2023-03-31T00:30:09.236Z,6.90
2023-03-31T00:33:06.176Z,6.97
2023-03-31T00:36:06.296Z,6.95
2023-03-31T00:39:09.573Z,6.97
2023-03-31T00:42:08.936Z,7.09
2023-03-31T00:45:14.549Z,7.17
2023-03-31T00:48:18.312Z,7.12
2023-03-31T00:51:15.902Z,7.13
2023-03-31T00:54:12.802Z,7.17
2023-03-31T00:57:11.446Z,7.24
2023-03-31T01:00:18.569Z,7.19
2023-03-31T01:03:16.107Z,7.19
2023-03-31T01:06:19.669Z,7.16
2023-03-31T01:09:17.021Z,7.20
2023-03-31T01:12:17.832Z,7.19
2023-03-31T01:15:14.665Z,7.20
2023-03-31T01:18:13.855Z,7.26
2023-03-31T01:21:30.821Z,7.33
2023-03-31T01:25:08.977Z,7.24
2023-03-31T01:28:14.540Z,7.20
2023-03-31T01:31:35.341Z,7.17
2023-03-31T01:35:13.987Z,7.28
2023-03-31T01:39:35.488Z,7.26
2023-03-31T01:42:48.726Z,7.21
2023-03-31T01:46:10.374Z,7.30
2023-03-31T01:49:32.220Z,7.21
2023-03-31T01:53:01.437Z,7.23
2023-03-31T01:56:17.296Z,7.25
2023-03-31T01:59:34.094Z,7.15
2023-03-31T02:02:42.328Z,7.23
2023-03-31T02:05:51.450Z,7.21
2023-03-31T02:09:14.908Z,7.22
2023-03-31T02:12:13.609Z,7.25
2023-03-31T02:15:18.341Z,7.22
2023-03-31T02:18:19.142Z,7.29
2023-03-31T02:21:16.445Z,7.34
2023-03-31T02:24:15.233Z,7.35
2023-03-31T02:27:36.262Z,7.34
2023-03-31T02:31:07.792Z,7.48
2023-03-31T02:34:04.689Z,7.48
2023-03-31T02:37:01.862Z,7.44
2023-03-31T02:40:06.270Z,7.41
2023-03-31T02:43:03.823Z,7.39
2023-03-31T02:46:00.689Z,7.53
2023-03-31T02:49:01.208Z,7.54
2023-03-31T02:52:59.685Z,7.33
2023-03-31T02:56:44.847Z,7.51
2023-03-31T03:00:29.110Z,7.49
2023-03-31T03:03:45.241Z,7.45
2023-03-31T03:07:16.934Z,7.56
2023-03-31T03:10:35.991Z,7.47
2023-03-31T03:13:48.668Z,7.60
2023-03-31T03:16:53.289Z,7.61
2023-03-31T03:19:57.047Z,7.61
2023-03-31T03:22:53.880Z,7.69
2023-03-31T03:25:51.143Z,7.62
2023-03-31T03:28:49.077Z,7.63
2023-03-31T03:31:45.932Z,7.62
2023-03-31T03:34:42.785Z,7.64
2023-03-31T03:37:39.656Z,7.57
2023-03-31T03:40:36.527Z,7.46
2023-03-31T03:43:33.369Z,7.45
2023-03-31T03:46:30.381Z,7.35
2023-03-31T03:49:27.281Z,7.36
2023-03-31T03:52:24.103Z,7.45
2023-03-31T03:55:20.910Z,7.45
2023-03-31T03:58:19.664Z,7.52
2023-03-31T04:01:16.813Z,7.60
2023-03-31T04:04:13.657Z,7.58
2023-03-31T04:07:10.545Z,7.44
2023-03-31T04:10:08.800Z,7.34
2023-03-31T04:13:06.760Z,7.36
2023-03-31T04:16:03.743Z,7.36
2023-03-31T04:19:03.763Z,7.33
2023-03-31T04:22:03.021Z,7.28
2023-03-31T04:25:00.335Z,7.48
2023-03-31T04:27:57.334Z,7.46
2023-03-31T04:30:58.870Z,7.52
2023-03-31T04:33:56.551Z,7.60
2023-03-31T04:36:56.149Z,7.40
2023-03-31T04:39:54.634Z,7.52
2023-03-31T04:42:51.835Z,7.54
2023-03-31T04:45:48.697Z,7.46
2023-03-31T04:48:45.726Z,7.47
2023-03-31T04:51:42.550Z,7.51
2023-03-31T04:54:39.370Z,7.58
2023-03-31T04:57:37.198Z,7.46
2023-03-31T05:00:34.011Z,7.39
2023-03-31T05:03:31.056Z,7.52
2023-03-31T05:06:28.027Z,7.50
2023-03-31T05:09:24.894Z,7.53
2023-03-31T05:12:21.816Z,7.39
2023-03-31T05:15:18.751Z,7.52
2023-03-31T05:18:15.686Z,7.54
2023-03-31T05:21:15.809Z,7.58
2023-03-31T05:24:13.558Z,7.57
2023-03-31T05:27:10.631Z,7.45
2023-03-31T05:30:08.184Z,7.50
2023-03-31T05:33:05.136Z,7.46
2023-03-31T05:36:02.120Z,7.43
2023-03-31T05:38:59.048Z,7.39
2023-03-31T05:41:55.891Z,7.39
2023-03-31T05:44:52.775Z,7.33
2023-03-31T05:47:49.684Z,7.29
2023-03-31T05:50:46.776Z,7.41
2023-03-31T05:53:44.110Z,7.43
2023-03-31T05:56:40.952Z,7.48
2023-03-31T05:59:38.489Z,7.60
2023-03-31T06:02:35.768Z,7.63
2023-03-31T06:05:32.822Z,7.60
2023-03-31T06:08:30.101Z,7.56
2023-03-31T06:11:27.205Z,7.43
2023-03-31T06:14:24.205Z,7.48
2023-03-31T06:17:21.113Z,7.52
2023-03-31T06:20:27.838Z,7.49
2023-03-31T06:23:26.698Z,7.47
2023-03-31T06:26:23.821Z,7.49
2023-03-31T06:29:20.800Z,7.50
2023-03-31T06:32:17.843Z,7.44
2023-03-31T06:35:14.690Z,7.44
2023-03-31T06:38:11.626Z,7.55
2023-03-31T06:41:12.819Z,7.59
2023-03-31T06:44:09.890Z,7.63
2023-03-31T06:47:06.735Z,7.59
2023-03-31T06:50:04.873Z,7.60
2023-03-31T06:53:01.760Z,7.61
2023-03-31T06:55:58.753Z,7.62
2023-03-31T06:58:55.607Z,7.56
2023-03-31T07:01:52.962Z,7.49
2023-03-31T07:04:50.336Z,7.59
2023-03-31T07:07:47.169Z,7.55
2023-03-31T07:10:47.391Z,7.64
2023-03-31T07:13:44.253Z,7.59
2023-03-31T07:16:41.270Z,7.58
2023-03-31T07:19:41.880Z,7.52
2023-03-31T07:22:41.451Z,7.58
2023-03-31T07:25:38.377Z,7.53
2023-03-31T07:28:35.700Z,7.51
2023-03-31T07:31:32.820Z,7.43
2023-03-31T07:34:29.710Z,7.49
2023-03-31T07:37:26.680Z,7.60
2023-03-31T07:40:27.025Z,7.56
2023-03-31T07:43:23.928Z,7.52
2023-03-31T07:46:25.517Z,7.60
2023-03-31T07:49:22.408Z,7.67
2023-03-31T07:52:19.871Z,7.56
2023-03-31T07:55:17.190Z,7.64
2023-03-31T07:58:14.451Z,7.62
2023-03-31T08:01:18.834Z,7.61
2023-03-31T08:04:15.774Z,7.63
2023-03-31T08:07:14.992Z,7.46
2023-03-31T08:10:18.187Z,7.45
2023-03-31T08:13:15.087Z,7.47
2023-03-31T08:16:11.934Z,7.43
2023-03-31T08:19:08.804Z,7.47
2023-03-31T08:22:05.640Z,7.53
2023-03-31T08:25:03.404Z,7.41
2023-03-31T08:28:00.254Z,7.49
2023-03-31T08:31:02.288Z,7.52
2023-03-31T08:33:59.448Z,7.61
2023-03-31T08:36:56.550Z,7.60
2023-03-31T08:39:54.236Z,7.60
2023-03-31T08:43:10.324Z,7.54
2023-03-31T08:46:12.301Z,7.43
2023-03-31T08:49:18.505Z,7.41
2023-03-31T08:52:23.636Z,7.49
2023-03-31T08:55:29.281Z,7.52
2023-03-31T08:58:48.936Z,7.42
2023-03-31T09:02:12.357Z,7.44
2023-03-31T09:06:02.959Z,7.51
2023-03-31T09:09:03.416Z,7.53
2023-03-31T09:12:21.061Z,7.53
2023-03-31T09:15:36.936Z,7.42
2023-03-31T09:18:37.948Z,7.53
2023-03-31T09:21:44.424Z,7.49
2023-03-31T09:24:55.789Z,7.47
2023-03-31T09:27:56.643Z,7.34
2023-03-31T09:31:04.985Z,7.40
2023-03-31T09:34:14.772Z,7.37
2023-03-31T09:37:13.042Z,7.45
2023-03-31T09:40:22.866Z,7.40
2023-03-31T09:43:28.293Z,7.44
2023-03-31T09:46:35.812Z,7.49
2023-03-31T09:49:36.426Z,7.46
2023-03-31T09:52:41.709Z,7.51
2023-03-31T09:55:52.525Z,7.51
2023-03-31T09:58:49.271Z,7.44
2023-03-31T10:01:50.933Z,7.39
2023-03-31T10:04:47.902Z,7.46
2023-03-31T10:07:44.977Z,7.52
2023-03-31T10:11:07.762Z,7.49
2023-03-31T10:14:13.805Z,7.53
2023-03-31T10:17:22.181Z,7.61
2023-03-31T10:20:37.876Z,7.62
2023-03-31T10:23:36.166Z,7.76
2023-03-31T10:26:33.001Z,7.70
2023-03-31T10:29:33.678Z,7.68
2023-03-31T10:32:34.122Z,7.71
2023-03-31T10:35:34.655Z,7.85
2023-03-31T10:38:40.534Z,7.91
2023-03-31T10:41:39.426Z,8.06
2023-03-31T10:44:39.413Z,8.16
2023-03-31T10:47:36.304Z,8.24
2023-03-31T10:50:36.182Z,8.43
2023-03-31T10:53:51.843Z,8.60
2023-03-31T10:57:09.039Z,8.67
2023-03-31T11:00:22.448Z,8.62
2023-03-31T11:03:55.200Z,8.78
2023-03-31T11:07:12.384Z,8.60
2023-03-31T11:10:15.317Z,8.59
2023-03-31T11:13:43.068Z,8.77
2023-03-31T11:17:03.794Z,9.40
2023-03-31T11:20:51.322Z,9.06
2023-03-31T11:24:06.779Z,9.25
2023-03-31T11:27:12.413Z,9.49
2023-03-31T11:30:41.860Z,9.62
2023-03-31T11:34:11.394Z,9.95
2023-03-31T11:37:52.935Z,9.37
2023-03-31T11:41:09.410Z,9.10
2023-03-31T11:44:12.207Z,8.92
2023-03-31T11:47:25.130Z,9.05
2023-03-31T11:50:27.765Z,8.92
2023-03-31T11:53:35.792Z,8.68
2023-03-31T11:56:38.891Z,8.69
2023-03-31T11:59:37.363Z,8.42
2023-03-31T12:02:53.071Z,8.42
2023-03-31T12:06:06.599Z,8.60
2023-03-31T12:09:50.171Z,8.48
2023-03-31T12:13:35.816Z,8.70
2023-03-31T12:16:47.418Z,8.93
2023-03-31T12:20:07.219Z,9.23
2023-03-31T12:23:11.279Z,9.45
2023-03-31T12:26:31.128Z,9.21
2023-03-31T12:29:41.400Z,9.08
2023-03-31T12:32:43.564Z,9.26
2023-03-31T12:36:39.281Z,9.16
2023-03-31T12:40:33.990Z,8.82
2023-03-31T12:44:03.072Z,8.89
2023-03-31T12:47:18.839Z,8.92
2023-03-31T12:50:53.574Z,8.82
2023-03-31T12:54:07.749Z,8.82
2023-03-31T12:57:08.706Z,8.86
2023-03-31T13:00:12.578Z,8.84
2023-03-31T13:04:09.002Z,8.81
2023-03-31T13:07:28.234Z,8.66
2023-03-31T13:10:29.515Z,8.68
2023-03-31T13:13:26.896Z,8.50
2023-03-31T13:16:23.816Z,8.44
2023-03-31T13:19:36.372Z,8.19
2023-03-31T13:22:37.821Z,8.19
2023-03-31T13:25:55.490Z,8.32
2023-03-31T13:29:19.443Z,8.27
2023-03-31T13:32:23.065Z,8.35
2023-03-31T13:35:28.717Z,8.44
2023-03-31T13:38:59.897Z,8.40
2023-03-31T13:42:32.976Z,8.50
2023-03-31T13:45:59.642Z,8.38
2023-03-31T13:49:44.965Z,8.42
2023-03-31T13:53:19.928Z,8.54
2023-03-31T13:56:23.860Z,8.92
2023-03-31T13:59:51.596Z,9.18
2023-03-31T14:03:50.117Z,9.32
2023-03-31T14:07:31.757Z,9.49
2023-03-31T14:10:34.148Z,9.48
2023-03-31T14:13:30.995Z,10.33
2023-03-31T14:16:31.566Z,11.21
2023-03-31T14:19:52.097Z,10.36
2023-03-31T14:22:48.875Z,9.65
2023-03-31T14:26:03.947Z,9.39
2023-03-31T14:29:10.576Z,9.27
2023-03-31T14:33:04.350Z,9.28
2023-03-31T14:36:28.344Z,9.07
2023-03-31T14:39:35.054Z,8.82
2023-03-31T14:42:49.514Z,8.67
2023-03-31T14:45:46.360Z,8.33
2023-03-31T14:48:51.047Z,8.40
2023-03-31T14:51:51.429Z,8.16
2023-03-31T14:54:48.488Z,8.36
2023-03-31T14:57:49.719Z,8.22
2023-03-31T15:00:47.592Z,8.11
2023-03-31T15:03:46.190Z,8.25
2023-03-31T15:06:46.696Z,8.11
2023-03-31T15:09:49.754Z,8.31
2023-03-31T15:12:49.968Z,8.23
2023-03-31T15:15:46.963Z,8.20
2023-03-31T15:18:44.951Z,8.08
2023-03-31T15:21:41.871Z,8.11
2023-03-31T15:24:38.811Z,8.09
2023-03-31T15:27:40.784Z,8.16
2023-03-31T15:30:38.103Z,8.01
2023-03-31T15:33:41.267Z,7.96
2023-03-31T15:36:38.761Z,7.96
2023-03-31T15:39:38.236Z,7.81
2023-03-31T15:42:36.930Z,7.77
2023-03-31T15:45:50.149Z,7.68
2023-03-31T15:48:54.250Z,7.90
2023-03-31T15:51:53.165Z,7.71
2023-03-31T15:54:50.141Z,7.75
2023-03-31T15:57:47.001Z,7.89
2023-03-31T16:00:47.907Z,8.01
2023-03-31T16:03:45.759Z,8.03
2023-03-31T16:07:08.242Z,8.07
2023-03-31T16:10:23.182Z,8.02
2023-03-31T16:13:23.294Z,7.93
2023-03-31T16:16:24.014Z,7.94
2023-03-31T16:19:23.100Z,8.05
2023-03-31T16:22:24.310Z,7.96
2023-03-31T16:25:24.090Z,8.05
2023-03-31T16:28:28.316Z,7.76
2023-03-31T16:31:35.231Z,7.77
2023-03-31T16:34:32.420Z,7.67
2023-03-31T16:37:29.789Z,7.76
2023-03-31T16:40:26.876Z,7.93
2023-03-31T16:43:27.261Z,7.92
2023-03-31T16:46:24.844Z,7.91
2023-03-31T16:49:21.739Z,7.95
2023-03-31T16:52:18.694Z,7.90
2023-03-31T16:55:15.722Z,7.94
2023-03-31T16:58:12.930Z,7.87
2023-03-31T17:01:13.102Z,7.97
2023-03-31T17:04:09.959Z,7.95
2023-03-31T17:07:06.787Z,7.88
2023-03-31T17:10:03.970Z,7.96
2023-03-31T17:13:01.129Z,7.78
2023-03-31T17:16:15.292Z,7.85
2023-03-31T17:19:17.323Z,7.87
2023-03-31T17:22:14.165Z,7.89
2023-03-31T17:25:11.472Z,7.77
2023-03-31T17:28:08.351Z,7.76
2023-03-31T17:31:17.732Z,7.74
2023-03-31T17:34:14.662Z,7.79
2023-03-31T17:37:12.435Z,7.61
2023-03-31T17:40:09.844Z,7.71
2023-03-31T17:43:07.299Z,7.85
2023-03-31T17:46:13.240Z,7.81
2023-03-31T17:49:11.130Z,7.76
2023-03-31T17:52:08.043Z,7.87
2023-03-31T17:55:05.656Z,7.81
2023-03-31T17:58:02.551Z,7.86
2023-03-31T18:00:59.853Z,7.80
2023-03-31T18:03:57.768Z,7.69
2023-03-31T18:06:54.931Z,7.78
2023-03-31T18:09:51.957Z,7.54
2023-03-31T18:12:48.793Z,7.75
2023-03-31T18:15:52.722Z,7.71
2023-03-31T18:18:49.650Z,7.54
2023-03-31T18:21:46.509Z,7.63
2023-03-31T18:24:44.417Z,7.63
2023-03-31T18:27:41.915Z,7.62
2023-03-31T18:30:39.234Z,7.60
2023-03-31T18:33:36.526Z,7.58
2023-03-31T18:36:34.191Z,7.45
2023-03-31T18:39:31.544Z,7.71
2023-03-31T18:42:28.375Z,7.56
2023-03-31T18:45:25.433Z,7.46
2023-03-31T18:48:23.237Z,7.37
2023-03-31T18:51:20.161Z,7.23
2023-03-31T18:54:17.560Z,7.20
2023-03-31T18:57:14.467Z,7.28
2023-03-31T19:00:12.336Z,7.17
2023-03-31T19:03:09.847Z,7.15
2023-03-31T19:06:10.227Z,7.13
2023-03-31T19:09:07.154Z,7.07
2023-03-31T19:12:04.484Z,7.02
2023-03-31T19:15:01.427Z,6.94
2023-03-31T19:17:58.323Z,6.94
2023-03-31T19:20:56.270Z,7.02
2023-03-31T19:23:53.106Z,7.03
2023-03-31T19:26:50.484Z,6.98
2023-03-31T19:29:47.322Z,6.97
2023-03-31T19:32:49.521Z,6.92
2023-03-31T19:35:48.382Z,6.99
2023-03-31T19:38:45.355Z,6.99
2023-03-31T19:41:42.284Z,6.95
2023-03-31T19:44:39.373Z,6.87
2023-03-31T19:47:36.611Z,6.96
2023-03-31T19:50:33.630Z,7.01
2023-03-31T19:53:31.338Z,7.02
2023-03-31T19:56:28.594Z,7.04
2023-03-31T19:59:25.790Z,7.03
2023-03-31T20:02:23.609Z,6.97
2023-03-31T20:05:20.977Z,7.00
2023-03-31T20:08:18.248Z,7.05
2023-03-31T20:11:16.547Z,6.96
2023-03-31T20:14:15.365Z,7.04
2023-03-31T20:17:12.927Z,6.96
2023-03-31T20:20:10.150Z,7.01
2023-03-31T20:23:06.979Z,6.97
2023-03-31T20:26:06.634Z,7.10
2023-03-31T20:29:04.221Z,7.11
2023-03-31T20:32:02.650Z,7.23
2023-03-31T20:35:00.412Z,7.19
2023-03-31T20:37:57.269Z,7.09
2023-03-31T20:40:55.107Z,7.13
2023-03-31T20:43:52.247Z,7.14
2023-03-31T20:46:49.115Z,7.20
2023-03-31T20:49:46.557Z,7.16
2023-03-31T20:52:47.489Z,7.22
2023-03-31T20:55:44.608Z,7.11
2023-03-31T20:58:43.916Z,7.24
2023-03-31T21:01:42.555Z,7.27
2023-03-31T21:04:39.620Z,7.22
2023-03-31T21:07:36.475Z,7.38
2023-03-31T21:10:43.333Z,7.25
2023-03-31T21:13:40.249Z,7.22
2023-03-31T21:16:37.509Z,7.43
2023-03-31T21:19:34.467Z,7.35
2023-03-31T21:22:31.379Z,7.24
2023-03-31T21:25:28.475Z,7.21
2023-03-31T21:28:32.747Z,7.24
2023-03-31T21:31:29.618Z,7.27
2023-03-31T21:34:27.208Z,7.19
2023-03-31T21:37:24.703Z,7.21
2023-03-31T21:40:22.004Z,7.30
2023-03-31T21:43:20.060Z,7.24
2023-03-31T21:46:21.067Z,7.27
2023-03-31T21:49:19.028Z,7.19
2023-03-31T21:52:15.862Z,7.17
2023-03-31T21:55:12.716Z,7.19
2023-03-31T21:58:10.320Z,7.19
2023-03-31T22:01:08.344Z,7.21
2023-03-31T22:04:05.315Z,7.21
2023-03-31T22:07:02.149Z,7.20
2023-03-31T22:09:59.083Z,7.14
2023-03-31T22:12:56.134Z,7.16
2023-03-31T22:15:53.539Z,7.20
2023-03-31T22:18:50.789Z,7.14
2023-03-31T22:21:49.932Z,7.12
2023-03-31T22:24:46.762Z,7.06
2023-03-31T22:27:45.474Z,7.07
2023-03-31T22:30:42.954Z,7.10
2023-03-31T22:33:39.788Z,7.15
2023-03-31T22:36:36.648Z,7.13
2023-03-31T22:39:33.480Z,7.10
2023-03-31T22:42:30.298Z,7.03
2023-03-31T22:45:27.366Z,7.02
2023-03-31T22:48:24.189Z,7.03
2023-03-31T22:51:21.018Z,7.05
2023-03-31T22:54:17.979Z,6.94
2023-03-31T22:57:15.050Z,7.03
2023-03-31T23:00:13.805Z,7.02
2023-03-31T23:03:10.886Z,7.00
2023-03-31T23:06:08.474Z,7.01
2023-03-31T23:09:05.410Z,6.95
2023-03-31T23:12:02.238Z,6.96
2023-03-31T23:14:59.060Z,6.96
2023-03-31T23:17:56.116Z,6.90
2023-03-31T23:20:52.962Z,6.91
2023-03-31T23:23:53.745Z,6.91
2023-03-31T23:26:50.538Z,6.92
2023-03-31T23:29:47.433Z,6.82
2023-03-31T23:32:44.272Z,6.92
2023-03-31T23:35:41.383Z,6.94
2023-03-31T23:38:38.292Z,6.91
2023-03-31T23:41:35.208Z,6.88
2023-03-31T23:44:33.243Z,6.86
2023-03-31T23:47:30.138Z,6.86
2023-03-31T23:50:28.171Z,6.84
2023-03-31T23:53:25.069Z,6.92
2023-03-31T23:56:22.296Z,6.91
2023-03-31T23:59:19.228Z,6.82
